sensor_id;sensor_type;location;lat;lon;timestamp;P1;durP1;ratioP1;P2;durP2;ratioP2
80619;SDS011;69979;53.682;-2.690;2024-01-15T00:00:29;3;;;3;;
80619;SDS011;69979;53.682;-2.690;2024-01-15T00:02:54;6;;;6;;
80619;SDS011;69979;53.682;-2.690;2024-01-15T00:05:20;6;;;6;;
80619;SDS011;69979;53.682;-2.690;2024-01-15T00:07:46;5;;;5;;
80619;SDS011;69979;53.682;-2.690;2024-01-15T00:10:12;6;;;6;;
80619;SDS011;69979;53.682;-2.690;2024-01-15T00:12:38;5;;;5;;
80619;SDS011;69979;53.682;-2.690;2024-01-15T00:15:04;6;;;6;;
80619;SDS011;69979;53.682;-2.690;2024-01-15T00:17:29;6;;;6;;
80619;SDS011;69979;53.682;-2.690;2024-01-15T00:19:55;3;;;3;;
80619;SDS011;69979;53.682;-2.690;2024-01-15T00:22:21;5;;;5;;
80619;SDS011;69979;53.682;-2.690;2024-01-15T00:24:47;3;;;3;;
80619;SDS011;69979;53.682;-2.690;2024-01-15T00:27:13;5;;;5;;
80619;SDS011;69979;53.682;-2.690;2024-01-15T00:29:39;3;;;3;;
80619;SDS011;69979;53.682;-2.690;2024-01-15T00:32:05;3;;;2;;
80619;SDS011;69979;53.682;-2.690;2024-01-15T00:34:30;2;;;2;;
80619;SDS011;69979;53.682;-2.690;2024-01-15T00:36:56;2;;;2;;
80619;SDS011;69979;53.682;-2.690;2024-01-15T00:39:22;2;;;2;;
80619;SDS011;69979;53.682;-2.690;2024-01-15T00:41:48;1;;;1;;
80619;SDS011;69979;53.682;-2.690;2024-01-15T00:44:14;2;;;2;;
80619;SDS011;69979;53.682;-2.690;2024-01-15T00:46:43;1;;;1;;
80619;SDS011;69979;53.682;-2.690;2024-01-15T00:49:05;1;;;1;;
80619;SDS011;69979;53.682;-2.690;2024-01-15T00:51:31;0;;;0;;
80619;SDS011;69979;53.682;-2.690;2024-01-15T00:53:57;1;;;1;;
80619;SDS011;69979;53.682;-2.690;2024-01-15T00:56:23;0;;;0;;
80619;SDS011;69979;53.682;-2.690;2024-01-15T00:58:49;1;;;1;;
80619;SDS011;69979;53.682;-2.690;2024-01-15T01:01:14;1;;;1;;
80619;SDS011;69979;53.682;-2.690;2024-01-15T01:03:40;2;;;1;;
80619;SDS011;69979;53.682;-2.690;2024-01-15T01:06:06;3;;;2;;
80619;SDS011;69979;53.682;-2.690;2024-01-15T01:08:32;2;;;2;;
80619;SDS011;69979;53.682;-2.690;2024-01-15T01:10:58;0;;;0;;
80619;SDS011;69979;53.682;-2.690;2024-01-15T01:13:24;1;;;1;;
80619;SDS011;69979;53.682;-2.690;2024-01-15T01:15:49;1;;;1;;
80619;SDS011;69979;53.682;-2.690;2024-01-15T01:18:15;1;;;0;;
80619;SDS011;69979;53.682;-2.690;2024-01-15T01:20:41;1;;;0;;
80619;SDS011;69979;53.682;-2.690;2024-01-15T01:23:07;0;;;0;;
80619;SDS011;69979;53.682;-2.690;2024-01-15T01:25:33;1;;;1;;
80619;SDS011;69979;53.682;-2.690;2024-01-15T01:27:58;0;;;0;;
80619;SDS011;69979;53.682;-2.690;2024-01-15T01:30:24;0;;;0;;
80619;SDS011;69979;53.682;-2.690;2024-01-15T01:32:50;0;;;0;;
80619;SDS011;69979;53.682;-2.690;2024-01-15T01:35:16;0;;;0;;
80619;SDS011;69979;53.682;-2.690;2024-01-15T01:37:42;1;;;1;;
80619;SDS011;69979;53.682;-2.690;2024-01-15T01:40:08;1;;;1;;
80619;SDS011;69979;53.682;-2.690;2024-01-15T01:42:33;1;;;1;;
80619;SDS011;69979;53.682;-2.690;2024-01-15T01:44:59;1;;;1;;
80619;SDS011;69979;53.682;-2.690;2024-01-15T01:47:25;3;;;3;;
80619;SDS011;69979;53.682;-2.690;2024-01-15T01:49:51;1;;;1;;
80619;SDS011;69979;53.682;-2.690;2024-01-15T01:52:16;1;;;1;;
80619;SDS011;69979;53.682;-2.690;2024-01-15T01:54:42;1;;;1;;
80619;SDS011;69979;53.682;-2.690;2024-01-15T01:57:08;3;;;2;;
80619;SDS011;69979;53.682;-2.690;2024-01-15T01:59:34;1;;;1;;
80619;SDS011;69979;53.682;-2.690;2024-01-15T02:01:59;2;;;2;;
80619;SDS011;69979;53.682;-2.690;2024-01-15T02:04:25;2;;;2;;
80619;SDS011;69979;53.682;-2.690;2024-01-15T02:06:51;2;;;2;;
80619;SDS011;69979;53.682;-2.690;2024-01-15T02:09:17;1;;;1;;
80619;SDS011;69979;53.682;-2.690;2024-01-15T02:11:42;3;;;2;;
80619;SDS011;69979;53.682;-2.690;2024-01-15T02:14:08;1;;;1;;
80619;SDS011;69979;53.682;-2.690;2024-01-15T02:16:34;2;;;1;;
80619;SDS011;69979;53.682;-2.690;2024-01-15T02:19:00;1;;;1;;
80619;SDS011;69979;53.682;-2.690;2024-01-15T02:21:26;1;;;1;;
80619;SDS011;69979;53.682;-2.690;2024-01-15T02:23:51;2;;;2;;
80619;SDS011;69979;53.682;-2.690;2024-01-15T02:26:17;1;;;1;;
80619;SDS011;69979;53.682;-2.690;2024-01-15T02:28:43;2;;;2;;
80619;SDS011;69979;53.682;-2.690;2024-01-15T02:31:09;0;;;0;;
80619;SDS011;69979;53.682;-2.690;2024-01-15T02:33:34;2;;;2;;
80619;SDS011;69979;53.682;-2.690;2024-01-15T02:36:00;1;;;1;;
80619;SDS011;69979;53.682;-2.690;2024-01-15T02:38:26;1;;;1;;
80619;SDS011;69979;53.682;-2.690;2024-01-15T02:40:52;1;;;1;;
80619;SDS011;69979;53.682;-2.690;2024-01-15T02:43:18;1;;;1;;
80619;SDS011;69979;53.682;-2.690;2024-01-15T02:45:43;2;;;2;;
80619;SDS011;69979;53.682;-2.690;2024-01-15T02:48:09;3;;;3;;
80619;SDS011;69979;53.682;-2.690;2024-01-15T02:50:35;2;;;2;;
80619;SDS011;69979;53.682;-2.690;2024-01-15T02:53:01;2;;;2;;
80619;SDS011;69979;53.682;-2.690;2024-01-15T02:55:26;2;;;2;;
80619;SDS011;69979;53.682;-2.690;2024-01-15T02:57:52;1;;;1;;
80619;SDS011;69979;53.682;-2.690;2024-01-15T03:00:18;2;;;2;;
80619;SDS011;69979;53.682;-2.690;2024-01-15T03:02:44;2;;;1;;
80619;SDS011;69979;53.682;-2.690;2024-01-15T03:05:09;1;;;1;;
80619;SDS011;69979;53.682;-2.690;2024-01-15T03:07:35;1;;;1;;
80619;SDS011;69979;53.682;-2.690;2024-01-15T03:10:01;2;;;1;;
80619;SDS011;69979;53.682;-2.690;2024-01-15T03:12:27;1;;;1;;
80619;SDS011;69979;53.682;-2.690;2024-01-15T03:14:52;1;;;1;;
80619;SDS011;69979;53.682;-2.690;2024-01-15T03:17:18;2;;;2;;
80619;SDS011;69979;53.682;-2.690;2024-01-15T03:19:44;2;;;1;;
80619;SDS011;69979;53.682;-2.690;2024-01-15T03:22:10;2;;;2;;
80619;SDS011;69979;53.682;-2.690;2024-01-15T03:24:36;1;;;1;;
80619;SDS011;69979;53.682;-2.690;2024-01-15T03:27:02;2;;;2;;
80619;SDS011;69979;53.682;-2.690;2024-01-15T03:29:27;1;;;1;;
80619;SDS011;69979;53.682;-2.690;2024-01-15T03:31:53;1;;;1;;
80619;SDS011;69979;53.682;-2.690;2024-01-15T03:34:19;2;;;2;;
80619;SDS011;69979;53.682;-2.690;2024-01-15T03:36:45;2;;;2;;
80619;SDS011;69979;53.682;-2.690;2024-01-15T03:39:10;2;;;2;;
80619;SDS011;69979;53.682;-2.690;2024-01-15T03:41:36;1;;;1;;
80619;SDS011;69979;53.682;-2.690;2024-01-15T03:44:02;2;;;2;;
80619;SDS011;69979;53.682;-2.690;2024-01-15T03:46:28;1;;;1;;
80619;SDS011;69979;53.682;-2.690;2024-01-15T03:48:54;3;;;2;;
80619;SDS011;69979;53.682;-2.690;2024-01-15T03:51:19;0;;;0;;
80619;SDS011;69979;53.682;-2.690;2024-01-15T03:53:45;3;;;1;;
80619;SDS011;69979;53.682;-2.690;2024-01-15T03:56:11;1;;;1;;
80619;SDS011;69979;53.682;-2.690;2024-01-15T03:58:37;1;;;1;;
80619;SDS011;69979;53.682;-2.690;2024-01-15T04:01:03;2;;;1;;
80619;SDS011;69979;53.682;-2.690;2024-01-15T04:03:28;1;;;1;;
80619;SDS011;69979;53.682;-2.690;2024-01-15T04:05:54;2;;;1;;
80619;SDS011;69979;53.682;-2.690;2024-01-15T04:08:20;1;;;0;;
80619;SDS011;69979;53.682;-2.690;2024-01-15T04:10:46;1;;;1;;
80619;SDS011;69979;53.682;-2.690;2024-01-15T04:13:12;0;;;0;;
80619;SDS011;69979;53.682;-2.690;2024-01-15T04:15:37;2;;;1;;
80619;SDS011;69979;53.682;-2.690;2024-01-15T04:18:03;1;;;1;;
80619;SDS011;69979;53.682;-2.690;2024-01-15T04:20:29;1;;;1;;
80619;SDS011;69979;53.682;-2.690;2024-01-15T04:22:55;1;;;1;;
80619;SDS011;69979;53.682;-2.690;2024-01-15T04:25:21;2;;;1;;
80619;SDS011;69979;53.682;-2.690;2024-01-15T04:27:46;1;;;1;;
80619;SDS011;69979;53.682;-2.690;2024-01-15T04:30:12;0;;;0;;
80619;SDS011;69979;53.682;-2.690;2024-01-15T04:32:38;2;;;1;;
80619;SDS011;69979;53.682;-2.690;2024-01-15T04:35:04;1;;;0;;
80619;SDS011;69979;53.682;-2.690;2024-01-15T04:37:29;1;;;1;;
80619;SDS011;69979;53.682;-2.690;2024-01-15T04:39:55;1;;;1;;
80619;SDS011;69979;53.682;-2.690;2024-01-15T04:42:21;2;;;1;;
80619;SDS011;69979;53.682;-2.690;2024-01-15T04:44:47;0;;;0;;
80619;SDS011;69979;53.682;-2.690;2024-01-15T04:47:12;0;;;0;;
80619;SDS011;69979;53.682;-2.690;2024-01-15T04:49:38;1;;;1;;
80619;SDS011;69979;53.682;-2.690;2024-01-15T04:52:04;0;;;0;;
80619;SDS011;69979;53.682;-2.690;2024-01-15T04:54:30;2;;;1;;
80619;SDS011;69979;53.682;-2.690;2024-01-15T04:56:56;2;;;1;;
80619;SDS011;69979;53.682;-2.690;2024-01-15T04:59:21;1;;;1;;
80619;SDS011;69979;53.682;-2.690;2024-01-15T05:01:47;1;;;1;;
80619;SDS011;69979;53.682;-2.690;2024-01-15T05:04:13;1;;;1;;
80619;SDS011;69979;53.682;-2.690;2024-01-15T05:06:39;1;;;0;;
80619;SDS011;69979;53.682;-2.690;2024-01-15T05:09:05;1;;;1;;
80619;SDS011;69979;53.682;-2.690;2024-01-15T05:11:30;1;;;1;;
80619;SDS011;69979;53.682;-2.690;2024-01-15T05:13:56;2;;;2;;
80619;SDS011;69979;53.682;-2.690;2024-01-15T05:16:22;1;;;1;;
80619;SDS011;69979;53.682;-2.690;2024-01-15T05:18:48;0;;;0;;
80619;SDS011;69979;53.682;-2.690;2024-01-15T05:21:14;1;;;1;;
80619;SDS011;69979;53.682;-2.690;2024-01-15T05:23:39;0;;;0;;
80619;SDS011;69979;53.682;-2.690;2024-01-15T05:26:05;1;;;1;;
80619;SDS011;69979;53.682;-2.690;2024-01-15T05:28:31;0;;;0;;
80619;SDS011;69979;53.682;-2.690;2024-01-15T05:30:57;1;;;1;;
80619;SDS011;69979;53.682;-2.690;2024-01-15T05:33:23;1;;;1;;
80619;SDS011;69979;53.682;-2.690;2024-01-15T05:35:48;1;;;1;;
80619;SDS011;69979;53.682;-2.690;2024-01-15T05:38:14;2;;;2;;
80619;SDS011;69979;53.682;-2.690;2024-01-15T05:40:40;1;;;1;;
80619;SDS011;69979;53.682;-2.690;2024-01-15T05:43:06;0;;;0;;
80619;SDS011;69979;53.682;-2.690;2024-01-15T05:45:31;2;;;1;;
80619;SDS011;69979;53.682;-2.690;2024-01-15T05:47:57;3;;;3;;
80619;SDS011;69979;53.682;-2.690;2024-01-15T05:50:23;1;;;1;;
80619;SDS011;69979;53.682;-2.690;2024-01-15T05:52:49;3;;;2;;
80619;SDS011;69979;53.682;-2.690;2024-01-15T05:55:15;2;;;2;;
80619;SDS011;69979;53.682;-2.690;2024-01-15T05:57:40;3;;;3;;
80619;SDS011;69979;53.682;-2.690;2024-01-15T06:00:06;3;;;3;;
80619;SDS011;69979;53.682;-2.690;2024-01-15T06:02:32;3;;;3;;
80619;SDS011;69979;53.682;-2.690;2024-01-15T06:04:58;4;;;3;;
80619;SDS011;69979;53.682;-2.690;2024-01-15T06:07:23;5;;;2;;
80619;SDS011;69979;53.682;-2.690;2024-01-15T06:09:49;5;;;3;;
80619;SDS011;69979;53.682;-2.690;2024-01-15T06:12:15;2;;;2;;
80619;SDS011;69979;53.682;-2.690;2024-01-15T06:14:46;2;;;2;;
80619;SDS011;69979;53.682;-2.690;2024-01-15T06:17:07;2;;;2;;
80619;SDS011;69979;53.682;-2.690;2024-01-15T06:19:32;1;;;1;;
80619;SDS011;69979;53.682;-2.690;2024-01-15T06:21:58;3;;;3;;
80619;SDS011;69979;53.682;-2.690;2024-01-15T06:24:24;1;;;1;;
80619;SDS011;69979;53.682;-2.690;2024-01-15T06:26:50;3;;;2;;
80619;SDS011;69979;53.682;-2.690;2024-01-15T06:29:16;3;;;3;;
80619;SDS011;69979;53.682;-2.690;2024-01-15T06:31:41;2;;;2;;
80619;SDS011;69979;53.682;-2.690;2024-01-15T06:34:07;2;;;2;;
80619;SDS011;69979;53.682;-2.690;2024-01-15T06:36:33;2;;;2;;
80619;SDS011;69979;53.682;-2.690;2024-01-15T06:38:59;2;;;2;;
80619;SDS011;69979;53.682;-2.690;2024-01-15T06:41:25;2;;;2;;
80619;SDS011;69979;53.682;-2.690;2024-01-15T06:43:50;2;;;2;;
80619;SDS011;69979;53.682;-2.690;2024-01-15T06:46:19;3;;;3;;
80619;SDS011;69979;53.682;-2.690;2024-01-15T06:48:42;2;;;2;;
80619;SDS011;69979;53.682;-2.690;2024-01-15T06:51:08;5;;;2;;
80619;SDS011;69979;53.682;-2.690;2024-01-15T06:53:34;2;;;1;;
80619;SDS011;69979;53.682;-2.690;2024-01-15T06:56:00;1;;;1;;
80619;SDS011;69979;53.682;-2.690;2024-01-15T06:58:25;3;;;3;;
80619;SDS011;69979;53.682;-2.690;2024-01-15T07:00:51;2;;;2;;
80619;SDS011;69979;53.682;-2.690;2024-01-15T07:03:17;1;;;1;;
80619;SDS011;69979;53.682;-2.690;2024-01-15T07:05:43;2;;;2;;
80619;SDS011;69979;53.682;-2.690;2024-01-15T07:08:09;2;;;2;;
80619;SDS011;69979;53.682;-2.690;2024-01-15T07:10:34;2;;;2;;
80619;SDS011;69979;53.682;-2.690;2024-01-15T07:13:00;2;;;2;;
80619;SDS011;69979;53.682;-2.690;2024-01-15T07:15:26;1;;;1;;
80619;SDS011;69979;53.682;-2.690;2024-01-15T07:17:52;2;;;2;;
80619;SDS011;69979;53.682;-2.690;2024-01-15T07:20:18;1;;;1;;
80619;SDS011;69979;53.682;-2.690;2024-01-15T07:22:44;2;;;2;;
80619;SDS011;69979;53.682;-2.690;2024-01-15T07:25:10;2;;;2;;
80619;SDS011;69979;53.682;-2.690;2024-01-15T07:27:35;1;;;1;;
80619;SDS011;69979;53.682;-2.690;2024-01-15T07:30:01;1;;;1;;
80619;SDS011;69979;53.682;-2.690;2024-01-15T07:32:26;2;;;2;;
80619;SDS011;69979;53.682;-2.690;2024-01-15T07:34:51;1;;;1;;
80619;SDS011;69979;53.682;-2.690;2024-01-15T07:37:16;2;;;2;;
80619;SDS011;69979;53.682;-2.690;2024-01-15T07:39:41;2;;;2;;
80619;SDS011;69979;53.682;-2.690;2024-01-15T07:42:06;2;;;2;;
80619;SDS011;69979;53.682;-2.690;2024-01-15T07:44:31;0;;;0;;
80619;SDS011;69979;53.682;-2.690;2024-01-15T07:46:56;1;;;1;;
80619;SDS011;69979;53.682;-2.690;2024-01-15T07:49:21;2;;;2;;
80619;SDS011;69979;53.682;-2.690;2024-01-15T07:51:46;2;;;2;;
80619;SDS011;69979;53.682;-2.690;2024-01-15T07:54:11;2;;;2;;
80619;SDS011;69979;53.682;-2.690;2024-01-15T07:59:01;2;;;2;;
80619;SDS011;69979;53.682;-2.690;2024-01-15T08:01:26;1;;;1;;
80619;SDS011;69979;53.682;-2.690;2024-01-15T08:03:51;1;;;1;;
80619;SDS011;69979;53.682;-2.690;2024-01-15T08:06:17;2;;;2;;
80619;SDS011;69979;53.682;-2.690;2024-01-15T08:08:42;1;;;1;;
80619;SDS011;69979;53.682;-2.690;2024-01-15T08:11:07;1;;;1;;
80619;SDS011;69979;53.682;-2.690;2024-01-15T08:13:32;2;;;2;;
80619;SDS011;69979;53.682;-2.690;2024-01-15T08:15:57;2;;;2;;
80619;SDS011;69979;53.682;-2.690;2024-01-15T08:18:22;2;;;2;;
80619;SDS011;69979;53.682;-2.690;2024-01-15T08:20:47;3;;;3;;
80619;SDS011;69979;53.682;-2.690;2024-01-15T08:23:12;4;;;4;;
80619;SDS011;69979;53.682;-2.690;2024-01-15T08:25:37;3;;;3;;
80619;SDS011;69979;53.682;-2.690;2024-01-15T08:28:02;5;;;5;;
80619;SDS011;69979;53.682;-2.690;2024-01-15T08:30:27;3;;;3;;
80619;SDS011;69979;53.682;-2.690;2024-01-15T08:32:52;3;;;3;;
80619;SDS011;69979;53.682;-2.690;2024-01-15T08:35:17;3;;;2;;
80619;SDS011;69979;53.682;-2.690;2024-01-15T08:37:42;3;;;3;;
80619;SDS011;69979;53.682;-2.690;2024-01-15T08:40:07;2;;;2;;
80619;SDS011;69979;53.682;-2.690;2024-01-15T08:42:32;3;;;3;;
80619;SDS011;69979;53.682;-2.690;2024-01-15T08:44:57;1;;;1;;
80619;SDS011;69979;53.682;-2.690;2024-01-15T08:47:22;2;;;2;;
80619;SDS011;69979;53.682;-2.690;2024-01-15T08:49:47;3;;;3;;
80619;SDS011;69979;53.682;-2.690;2024-01-15T08:52:12;2;;;2;;
80619;SDS011;69979;53.682;-2.690;2024-01-15T08:54:37;6;;;6;;
80619;SDS011;69979;53.682;-2.690;2024-01-15T08:57:02;6;;;5;;
80619;SDS011;69979;53.682;-2.690;2024-01-15T08:59:27;6;;;5;;
80619;SDS011;69979;53.682;-2.690;2024-01-15T09:01:53;7;;;7;;
80619;SDS011;69979;53.682;-2.690;2024-01-15T09:04:18;10;;;9;;
80619;SDS011;69979;53.682;-2.690;2024-01-15T09:06:44;7;;;6;;
80619;SDS011;69979;53.682;-2.690;2024-01-15T09:09:10;7;;;7;;
80619;SDS011;69979;53.682;-2.690;2024-01-15T09:11:36;3;;;3;;
80619;SDS011;69979;53.682;-2.690;2024-01-15T09:14:01;6;;;6;;
80619;SDS011;69979;53.682;-2.690;2024-01-15T09:16:27;6;;;6;;
80619;SDS011;69979;53.682;-2.690;2024-01-15T09:18:53;6;;;6;;
80619;SDS011;69979;53.682;-2.690;2024-01-15T09:21:20;5;;;5;;
80619;SDS011;69979;53.682;-2.690;2024-01-15T09:23:45;10;;;8;;
80619;SDS011;69979;53.682;-2.690;2024-01-15T09:26:11;7;;;7;;
80619;SDS011;69979;53.682;-2.690;2024-01-15T09:28:36;7;;;7;;
80619;SDS011;69979;53.682;-2.690;2024-01-15T09:31:02;11;;;8;;
80619;SDS011;69979;53.682;-2.690;2024-01-15T09:33:28;7;;;6;;
80619;SDS011;69979;53.682;-2.690;2024-01-15T09:35:54;9;;;9;;
80619;SDS011;69979;53.682;-2.690;2024-01-15T09:38:20;8;;;8;;
80619;SDS011;69979;53.682;-2.690;2024-01-15T09:40:45;9;;;9;;
80619;SDS011;69979;53.682;-2.690;2024-01-15T09:43:11;7;;;7;;
80619;SDS011;69979;53.682;-2.690;2024-01-15T09:45:37;7;;;7;;
80619;SDS011;69979;53.682;-2.690;2024-01-15T09:48:03;8;;;7;;
80619;SDS011;69979;53.682;-2.690;2024-01-15T09:50:28;6;;;6;;
80619;SDS011;69979;53.682;-2.690;2024-01-15T09:52:54;6;;;6;;
80619;SDS011;69979;53.682;-2.690;2024-01-15T09:55:20;6;;;6;;
80619;SDS011;69979;53.682;-2.690;2024-01-15T09:57:46;6;;;6;;
80619;SDS011;69979;53.682;-2.690;2024-01-15T10:00:12;5;;;3;;
80619;SDS011;69979;53.682;-2.690;2024-01-15T10:02:38;5;;;5;;
80619;SDS011;69979;53.682;-2.690;2024-01-15T10:05:03;5;;;5;;
80619;SDS011;69979;53.682;-2.690;2024-01-15T10:07:29;3;;;3;;
80619;SDS011;69979;53.682;-2.690;2024-01-15T10:09:55;3;;;3;;
80619;SDS011;69979;53.682;-2.690;2024-01-15T10:12:21;3;;;2;;
80619;SDS011;69979;53.682;-2.690;2024-01-15T10:14:47;4;;;2;;
80619;SDS011;69979;53.682;-2.690;2024-01-15T10:17:13;5;;;5;;
80619;SDS011;69979;53.682;-2.690;2024-01-15T10:19:38;5;;;5;;
80619;SDS011;69979;53.682;-2.690;2024-01-15T10:22:04;2;;;2;;
80619;SDS011;69979;53.682;-2.690;2024-01-15T10:24:29;3;;;3;;
80619;SDS011;69979;53.682;-2.690;2024-01-15T10:29:21;2;;;2;;
80619;SDS011;69979;53.682;-2.690;2024-01-15T10:31:46;2;;;2;;
80619;SDS011;69979;53.682;-2.690;2024-01-15T10:34:12;3;;;3;;
80619;SDS011;69979;53.682;-2.690;2024-01-15T10:36:39;3;;;2;;
80619;SDS011;69979;53.682;-2.690;2024-01-15T10:39:04;2;;;2;;
80619;SDS011;69979;53.682;-2.690;2024-01-15T10:41:30;1;;;1;;
80619;SDS011;69979;53.682;-2.690;2024-01-15T10:43:55;2;;;2;;
80619;SDS011;69979;53.682;-2.690;2024-01-15T10:46:21;2;;;2;;
80619;SDS011;69979;53.682;-2.690;2024-01-15T10:48:47;2;;;2;;
80619;SDS011;69979;53.682;-2.690;2024-01-15T10:51:13;1;;;1;;
80619;SDS011;69979;53.682;-2.690;2024-01-15T10:53:39;1;;;1;;
80619;SDS011;69979;53.682;-2.690;2024-01-15T10:56:05;2;;;2;;
80619;SDS011;69979;53.682;-2.690;2024-01-15T10:58:30;2;;;2;;
80619;SDS011;69979;53.682;-2.690;2024-01-15T11:00:56;2;;;1;;
80619;SDS011;69979;53.682;-2.690;2024-01-15T11:03:22;2;;;1;;
80619;SDS011;69979;53.682;-2.690;2024-01-15T11:05:48;2;;;1;;
80619;SDS011;69979;53.682;-2.690;2024-01-15T11:08:16;1;;;1;;
80619;SDS011;69979;53.682;-2.690;2024-01-15T11:10:40;2;;;2;;
80619;SDS011;69979;53.682;-2.690;2024-01-15T11:13:07;0;;;0;;
80619;SDS011;69979;53.682;-2.690;2024-01-15T11:15:31;0;;;0;;
80619;SDS011;69979;53.682;-2.690;2024-01-15T11:17:58;0;;;0;;
80619;SDS011;69979;53.682;-2.690;2024-01-15T11:20:23;2;;;1;;
80619;SDS011;69979;53.682;-2.690;2024-01-15T11:22:49;1;;;1;;
80619;SDS011;69979;53.682;-2.690;2024-01-15T11:25:15;0;;;0;;
80619;SDS011;69979;53.682;-2.690;2024-01-15T11:27:41;1;;;1;;
80619;SDS011;69979;53.682;-2.690;2024-01-15T11:30:07;0;;;0;;
80619;SDS011;69979;53.682;-2.690;2024-01-15T11:32:33;0;;;0;;
80619;SDS011;69979;53.682;-2.690;2024-01-15T11:34:58;1;;;1;;
80619;SDS011;69979;53.682;-2.690;2024-01-15T11:37:24;1;;;1;;
80619;SDS011;69979;53.682;-2.690;2024-01-15T11:39:50;6;;;6;;
80619;SDS011;69979;53.682;-2.690;2024-01-15T11:42:15;5;;;3;;
80619;SDS011;69979;53.682;-2.690;2024-01-15T11:44:41;5;;;2;;
80619;SDS011;69979;53.682;-2.690;2024-01-15T11:47:07;3;;;3;;
80619;SDS011;69979;53.682;-2.690;2024-01-15T11:49:40;1;;;1;;
80619;SDS011;69979;53.682;-2.690;2024-01-15T11:51:59;0;;;0;;
80619;SDS011;69979;53.682;-2.690;2024-01-15T11:54:25;0;;;0;;
80619;SDS011;69979;53.682;-2.690;2024-01-15T11:56:50;0;;;0;;
80619;SDS011;69979;53.682;-2.690;2024-01-15T11:59:16;0;;;0;;
80619;SDS011;69979;53.682;-2.690;2024-01-15T12:01:42;0;;;0;;
80619;SDS011;69979;53.682;-2.690;2024-01-15T12:04:08;0;;;0;;
80619;SDS011;69979;53.682;-2.690;2024-01-15T12:06:34;1;;;1;;
80619;SDS011;69979;53.682;-2.690;2024-01-15T12:11:26;2;;;1;;
80619;SDS011;69979;53.682;-2.690;2024-01-15T12:13:51;1;;;0;;
80619;SDS011;69979;53.682;-2.690;2024-01-15T12:16:17;2;;;1;;
80619;SDS011;69979;53.682;-2.690;2024-01-15T12:18:43;0;;;0;;
80619;SDS011;69979;53.682;-2.690;2024-01-15T12:21:09;0;;;0;;
80619;SDS011;69979;53.682;-2.690;2024-01-15T12:23:35;0;;;0;;
80619;SDS011;69979;53.682;-2.690;2024-01-15T12:26:01;0;;;0;;
80619;SDS011;69979;53.682;-2.690;2024-01-15T12:28:53;0;;;0;;
80619;SDS011;69979;53.682;-2.690;2024-01-15T12:31:19;1;;;1;;
80619;SDS011;69979;53.682;-2.690;2024-01-15T12:33:44;0;;;0;;
80619;SDS011;69979;53.682;-2.690;2024-01-15T12:36:12;1;;;1;;
80619;SDS011;69979;53.682;-2.690;2024-01-15T12:38:36;0;;;0;;
80619;SDS011;69979;53.682;-2.690;2024-01-15T12:41:02;1;;;0;;
80619;SDS011;69979;53.682;-2.690;2024-01-15T12:43:28;0;;;0;;
80619;SDS011;69979;53.682;-2.690;2024-01-15T12:45:53;0;;;0;;
80619;SDS011;69979;53.682;-2.690;2024-01-15T12:48:19;0;;;0;;
80619;SDS011;69979;53.682;-2.690;2024-01-15T12:50:45;0;;;0;;
80619;SDS011;69979;53.682;-2.690;2024-01-15T12:53:11;1;;;1;;
80619;SDS011;69979;53.682;-2.690;2024-01-15T12:55:37;0;;;0;;
80619;SDS011;69979;53.682;-2.690;2024-01-15T12:58:03;0;;;0;;
80619;SDS011;69979;53.682;-2.690;2024-01-15T13:00:28;0;;;0;;
80619;SDS011;69979;53.682;-2.690;2024-01-15T13:02:54;0;;;0;;
80619;SDS011;69979;53.682;-2.690;2024-01-15T13:05:20;0;;;0;;
80619;SDS011;69979;53.682;-2.690;2024-01-15T13:07:46;1;;;1;;
80619;SDS011;69979;53.682;-2.690;2024-01-15T13:10:12;0;;;0;;
80619;SDS011;69979;53.682;-2.690;2024-01-15T13:12:37;1;;;1;;
80619;SDS011;69979;53.682;-2.690;2024-01-15T13:15:03;0;;;0;;
80619;SDS011;69979;53.682;-2.690;2024-01-15T13:17:29;0;;;0;;
80619;SDS011;69979;53.682;-2.690;2024-01-15T13:19:55;1;;;1;;
80619;SDS011;69979;53.682;-2.690;2024-01-15T13:22:21;0;;;0;;
80619;SDS011;69979;53.682;-2.690;2024-01-15T13:24:47;0;;;0;;
80619;SDS011;69979;53.682;-2.690;2024-01-15T13:27:12;0;;;0;;
80619;SDS011;69979;53.682;-2.690;2024-01-15T13:29:38;2;;;2;;
80619;SDS011;69979;53.682;-2.690;2024-01-15T13:32:04;0;;;0;;
80619;SDS011;69979;53.682;-2.690;2024-01-15T13:34:30;2;;;2;;
80619;SDS011;69979;53.682;-2.690;2024-01-15T13:36:56;0;;;0;;
80619;SDS011;69979;53.682;-2.690;2024-01-15T13:39:21;0;;;0;;
80619;SDS011;69979;53.682;-2.690;2024-01-15T13:41:47;1;;;1;;
80619;SDS011;69979;53.682;-2.690;2024-01-15T13:44:13;0;;;0;;
80619;SDS011;69979;53.682;-2.690;2024-01-15T13:46:39;0;;;0;;
80619;SDS011;69979;53.682;-2.690;2024-01-15T13:49:05;1;;;0;;
80619;SDS011;69979;53.682;-2.690;2024-01-15T13:51:31;1;;;1;;
80619;SDS011;69979;53.682;-2.690;2024-01-15T13:53:57;0;;;0;;
80619;SDS011;69979;53.682;-2.690;2024-01-15T13:56:22;0;;;0;;
80619;SDS011;69979;53.682;-2.690;2024-01-15T13:58:48;1;;;1;;
80619;SDS011;69979;53.682;-2.690;2024-01-15T14:01:14;0;;;0;;
80619;SDS011;69979;53.682;-2.690;2024-01-15T14:03:40;1;;;1;;
80619;SDS011;69979;53.682;-2.690;2024-01-15T14:06:06;0;;;0;;
80619;SDS011;69979;53.682;-2.690;2024-01-15T14:08:31;0;;;0;;
80619;SDS011;69979;53.682;-2.690;2024-01-15T14:10:57;0;;;0;;
80619;SDS011;69979;53.682;-2.690;2024-01-15T14:13:23;1;;;1;;
80619;SDS011;69979;53.682;-2.690;2024-01-15T14:15:49;0;;;0;;
80619;SDS011;69979;53.682;-2.690;2024-01-15T14:18:15;0;;;0;;
80619;SDS011;69979;53.682;-2.690;2024-01-15T14:20:40;0;;;0;;
80619;SDS011;69979;53.682;-2.690;2024-01-15T14:23:06;0;;;0;;
80619;SDS011;69979;53.682;-2.690;2024-01-15T14:25:32;0;;;0;;
80619;SDS011;69979;53.682;-2.690;2024-01-15T14:27:58;1;;;0;;
80619;SDS011;69979;53.682;-2.690;2024-01-15T14:30:24;0;;;0;;
80619;SDS011;69979;53.682;-2.690;2024-01-15T14:32:50;2;;;0;;
80619;SDS011;69979;53.682;-2.690;2024-01-15T14:35:15;0;;;0;;
80619;SDS011;69979;53.682;-2.690;2024-01-15T14:37:41;0;;;0;;
80619;SDS011;69979;53.682;-2.690;2024-01-15T14:40:07;0;;;0;;
80619;SDS011;69979;53.682;-2.690;2024-01-15T14:42:33;0;;;0;;
80619;SDS011;69979;53.682;-2.690;2024-01-15T14:44:59;1;;;1;;
80619;SDS011;69979;53.682;-2.690;2024-01-15T14:47:24;0;;;0;;
80619;SDS011;69979;53.682;-2.690;2024-01-15T14:49:50;0;;;0;;
80619;SDS011;69979;53.682;-2.690;2024-01-15T14:52:16;1;;;1;;
80619;SDS011;69979;53.682;-2.690;2024-01-15T14:54:42;1;;;1;;
80619;SDS011;69979;53.682;-2.690;2024-01-15T14:57:08;2;;;2;;
80619;SDS011;69979;53.682;-2.690;2024-01-15T14:59:34;0;;;0;;
80619;SDS011;69979;53.682;-2.690;2024-01-15T15:01:59;1;;;1;;
80619;SDS011;69979;53.682;-2.690;2024-01-15T15:04:25;1;;;1;;
80619;SDS011;69979;53.682;-2.690;2024-01-15T15:06:51;1;;;1;;
80619;SDS011;69979;53.682;-2.690;2024-01-15T15:09:17;1;;;1;;
80619;SDS011;69979;53.682;-2.690;2024-01-15T15:11:43;3;;;3;;
80619;SDS011;69979;53.682;-2.690;2024-01-15T15:14:08;1;;;1;;
80619;SDS011;69979;53.682;-2.690;2024-01-15T15:16:34;3;;;2;;
80619;SDS011;69979;53.682;-2.690;2024-01-15T15:19:00;2;;;2;;
80619;SDS011;69979;53.682;-2.690;2024-01-15T15:21:26;1;;;1;;
80619;SDS011;69979;53.682;-2.690;2024-01-15T15:23:52;1;;;1;;
80619;SDS011;69979;53.682;-2.690;2024-01-15T15:26:18;0;;;0;;
80619;SDS011;69979;53.682;-2.690;2024-01-15T15:28:43;2;;;1;;
80619;SDS011;69979;53.682;-2.690;2024-01-15T15:31:09;1;;;1;;
80619;SDS011;69979;53.682;-2.690;2024-01-15T15:33:35;2;;;1;;
80619;SDS011;69979;53.682;-2.690;2024-01-15T15:36:01;1;;;1;;
80619;SDS011;69979;53.682;-2.690;2024-01-15T15:38:27;0;;;0;;
80619;SDS011;69979;53.682;-2.690;2024-01-15T15:40:52;0;;;0;;
80619;SDS011;69979;53.682;-2.690;2024-01-15T15:43:18;0;;;0;;
80619;SDS011;69979;53.682;-2.690;2024-01-15T15:45:44;2;;;2;;
80619;SDS011;69979;53.682;-2.690;2024-01-15T15:48:10;1;;;1;;
80619;SDS011;69979;53.682;-2.690;2024-01-15T15:50:36;1;;;0;;
80619;SDS011;69979;53.682;-2.690;2024-01-15T15:53:02;1;;;0;;
80619;SDS011;69979;53.682;-2.690;2024-01-15T15:55:27;1;;;1;;
80619;SDS011;69979;53.682;-2.690;2024-01-15T15:57:53;1;;;1;;